Clear Creek, Ohio
Current Conditions -  °F | °C
As of 6:52 AM on Tuesday 27 Jan 2015 (Local Time) from KMFD Reporting Station
Light Snow Light Snow  
Wind Chill: -2°   Ceiling: 2100
Heat Index: 11°   Visibility: 4mi
Dew Point:   Wind: 9mph
Humidity: 92%   Direction: 320°NW
Pressure: 29.94"   Gusts: NA
Location:  40.9675°N, 82.3687°W
Report Text: KMFD 271152Z 32008KT 4SM -SN BR OVC021 M12/M13 A2994 RMK AO2 SNB49 SLP163 P0000 60000 70003 T11171128 11106 21122 53014
Loading
Personal Weather Stations






























Interactive Weather Map New forecast layout! Learn more

10-Day Weather Forecast

Advertisements
Track Severe Weather on mobile